sensor_id;sensor_type;location;lat;lon;timestamp;P1;durP1;ratioP1;P2;durP2;ratioP2
9304;SDS011;4690;52.422;13.486;2022-09-02T00:04:52;3.73;;;2.30;;
9304;SDS011;4690;52.422;13.486;2022-09-02T00:07:18;2.38;;;2.08;;
9304;SDS011;4690;52.422;13.486;2022-09-02T00:09:44;2.55;;;2.00;;
9304;SDS011;4690;52.422;13.486;2022-09-02T00:12:09;3.20;;;2.20;;
9304;SDS011;4690;52.422;13.486;2022-09-02T00:14:36;2.00;;;1.90;;
9304;SDS011;4690;52.422;13.486;2022-09-02T00:17:04;2.63;;;1.95;;
9304;SDS011;4690;52.422;13.486;2022-09-02T00:19:31;3.73;;;2.30;;
9304;SDS011;4690;52.422;13.486;2022-09-02T00:21:57;2.17;;;2.03;;
9304;SDS011;4690;52.422;13.486;2022-09-02T00:24:25;3.28;;;2.25;;
9304;SDS011;4690;52.422;13.486;2022-09-02T00:26:51;3.13;;;2.20;;
9304;SDS011;4690;52.422;13.486;2022-09-02T00:29:17;2.05;;;1.90;;
9304;SDS011;4690;52.422;13.486;2022-09-02T00:31:43;2.00;;;1.90;;
9304;SDS011;4690;52.422;13.486;2022-09-02T00:34:11;4.47;;;2.30;;
9304;SDS011;4690;52.422;13.486;2022-09-02T00:36:37;2.40;;;2.20;;
9304;SDS011;4690;52.422;13.486;2022-09-02T00:39:04;2.17;;;1.98;;
9304;SDS011;4690;52.422;13.486;2022-09-02T00:41:33;2.25;;;2.00;;
9304;SDS011;4690;52.422;13.486;2022-09-02T00:44:03;2.35;;;1.90;;
9304;SDS011;4690;52.422;13.486;2022-09-02T00:46:36;2.10;;;2.00;;
9304;SDS011;4690;52.422;13.486;2022-09-02T00:49:13;3.45;;;2.00;;
9304;SDS011;4690;52.422;13.486;2022-09-02T00:51:59;2.85;;;2.10;;
9304;SDS011;4690;52.422;13.486;2022-09-02T00:54:34;2.45;;;1.80;;
9304;SDS011;4690;52.422;13.486;2022-09-02T00:57:06;2.97;;;2.05;;
9304;SDS011;4690;52.422;13.486;2022-09-02T00:59:40;2.25;;;2.05;;
9304;SDS011;4690;52.422;13.486;2022-09-02T01:02:18;3.65;;;1.98;;
9304;SDS011;4690;52.422;13.486;2022-09-02T01:04:48;2.20;;;1.95;;
9304;SDS011;4690;52.422;13.486;2022-09-02T01:07:14;1.92;;;1.83;;
9304;SDS011;4690;52.422;13.486;2022-09-02T01:09:40;2.33;;;2.00;;
9304;SDS011;4690;52.422;13.486;2022-09-02T01:12:06;2.08;;;1.88;;
9304;SDS011;4690;52.422;13.486;2022-09-02T01:14:33;2.13;;;1.90;;
9304;SDS011;4690;52.422;13.486;2022-09-02T01:16:59;1.73;;;1.63;;
9304;SDS011;4690;52.422;13.486;2022-09-02T01:19:32;2.22;;;2.00;;
9304;SDS011;4690;52.422;13.486;2022-09-02T01:22:22;4.32;;;2.00;;
9304;SDS011;4690;52.422;13.486;2022-09-02T01:24:53;2.60;;;1.88;;
9304;SDS011;4690;52.422;13.486;2022-09-02T01:27:25;1.83;;;1.73;;
9304;SDS011;4690;52.422;13.486;2022-09-02T01:29:56;2.00;;;1.80;;
9304;SDS011;4690;52.422;13.486;2022-09-02T01:32:24;1.98;;;1.73;;
9304;SDS011;4690;52.422;13.486;2022-09-02T01:34:53;2.05;;;1.85;;
9304;SDS011;4690;52.422;13.486;2022-09-02T01:37:19;2.50;;;1.85;;
9304;SDS011;4690;52.422;13.486;2022-09-02T01:39:46;1.90;;;1.80;;
9304;SDS011;4690;52.422;13.486;2022-09-02T01:42:12;2.28;;;1.83;;
9304;SDS011;4690;52.422;13.486;2022-09-02T01:44:39;2.05;;;1.80;;
9304;SDS011;4690;52.422;13.486;2022-09-02T01:47:18;2.35;;;1.92;;
9304;SDS011;4690;52.422;13.486;2022-09-02T01:49:50;2.92;;;1.92;;
9304;SDS011;4690;52.422;13.486;2022-09-02T01:52:17;4.95;;;1.90;;
9304;SDS011;4690;52.422;13.486;2022-09-02T01:54:46;2.17;;;1.98;;
9304;SDS011;4690;52.422;13.486;2022-09-02T01:57:12;2.25;;;1.80;;
9304;SDS011;4690;52.422;13.486;2022-09-02T01:59:38;3.47;;;1.95;;
9304;SDS011;4690;52.422;13.486;2022-09-02T02:02:05;1.90;;;1.80;;
9304;SDS011;4690;52.422;13.486;2022-09-02T02:04:32;2.78;;;2.20;;
9304;SDS011;4690;52.422;13.486;2022-09-02T02:06:58;3.92;;;1.73;;
9304;SDS011;4690;52.422;13.486;2022-09-02T02:09:25;1.85;;;1.70;;
9304;SDS011;4690;52.422;13.486;2022-09-02T02:11:51;2.10;;;1.90;;
9304;SDS011;4690;52.422;13.486;2022-09-02T02:14:17;2.00;;;1.85;;
9304;SDS011;4690;52.422;13.486;2022-09-02T02:16:44;2.22;;;2.03;;
9304;SDS011;4690;52.422;13.486;2022-09-02T02:19:12;2.92;;;1.77;;
9304;SDS011;4690;52.422;13.486;2022-09-02T02:21:38;2.20;;;1.77;;
9304;SDS011;4690;52.422;13.486;2022-09-02T02:24:04;2.25;;;1.88;;
9304;SDS011;4690;52.422;13.486;2022-09-02T02:26:32;2.38;;;2.10;;
9304;SDS011;4690;52.422;13.486;2022-09-02T02:28:59;2.20;;;2.00;;
9304;SDS011;4690;52.422;13.486;2022-09-02T02:31:26;2.20;;;1.80;;
9304;SDS011;4690;52.422;13.486;2022-09-02T02:33:51;2.33;;;1.98;;
9304;SDS011;4690;52.422;13.486;2022-09-02T02:36:17;2.13;;;1.98;;
9304;SDS011;4690;52.422;13.486;2022-09-02T02:38:44;2.77;;;1.90;;
9304;SDS011;4690;52.422;13.486;2022-09-02T02:41:10;2.00;;;1.80;;
9304;SDS011;4690;52.422;13.486;2022-09-02T02:43:40;2.27;;;1.90;;
9304;SDS011;4690;52.422;13.486;2022-09-02T02:46:07;3.07;;;1.90;;
9304;SDS011;4690;52.422;13.486;2022-09-02T02:48:34;3.13;;;1.87;;
9304;SDS011;4690;52.422;13.486;2022-09-02T02:51:01;1.83;;;1.70;;
9304;SDS011;4690;52.422;13.486;2022-09-02T02:53:27;2.37;;;2.17;;
9304;SDS011;4690;52.422;13.486;2022-09-02T02:55:55;3.73;;;1.97;;
9304;SDS011;4690;52.422;13.486;2022-09-02T02:58:22;2.33;;;1.90;;
9304;SDS011;4690;52.422;13.486;2022-09-02T03:00:48;2.20;;;2.00;;
9304;SDS011;4690;52.422;13.486;2022-09-02T03:03:15;2.17;;;1.90;;
9304;SDS011;4690;52.422;13.486;2022-09-02T03:05:43;4.33;;;1.70;;
9304;SDS011;4690;52.422;13.486;2022-09-02T03:08:11;3.07;;;2.10;;
9304;SDS011;4690;52.422;13.486;2022-09-02T03:10:38;2.33;;;2.10;;
9304;SDS011;4690;52.422;13.486;2022-09-02T03:13:06;2.27;;;2.00;;
9304;SDS011;4690;52.422;13.486;2022-09-02T03:15:34;2.03;;;1.90;;
9304;SDS011;4690;52.422;13.486;2022-09-02T03:18:02;2.77;;;2.10;;
9304;SDS011;4690;52.422;13.486;2022-09-02T03:20:28;2.37;;;2.00;;
9304;SDS011;4690;52.422;13.486;2022-09-02T03:22:56;2.47;;;2.20;;
9304;SDS011;4690;52.422;13.486;2022-09-02T03:25:24;2.27;;;1.90;;
9304;SDS011;4690;52.422;13.486;2022-09-02T03:27:53;2.47;;;2.20;;
9304;SDS011;4690;52.422;13.486;2022-09-02T03:30:22;3.23;;;1.87;;
9304;SDS011;4690;52.422;13.486;2022-09-02T03:32:54;2.87;;;2.10;;
9304;SDS011;4690;52.422;13.486;2022-09-02T03:35:23;3.27;;;2.07;;
9304;SDS011;4690;52.422;13.486;2022-09-02T03:37:51;2.67;;;2.20;;
9304;SDS011;4690;52.422;13.486;2022-09-02T03:40:20;2.07;;;1.80;;
9304;SDS011;4690;52.422;13.486;2022-09-02T03:42:50;3.40;;;2.40;;
9304;SDS011;4690;52.422;13.486;2022-09-02T03:45:17;2.37;;;2.17;;
9304;SDS011;4690;52.422;13.486;2022-09-02T03:47:45;2.13;;;1.80;;
9304;SDS011;4690;52.422;13.486;2022-09-02T03:50:17;2.53;;;2.10;;
9304;SDS011;4690;52.422;13.486;2022-09-02T03:52:58;2.53;;;2.20;;
9304;SDS011;4690;52.422;13.486;2022-09-02T03:55:25;4.80;;;2.83;;
9304;SDS011;4690;52.422;13.486;2022-09-02T03:57:52;2.27;;;2.07;;
9304;SDS011;4690;52.422;13.486;2022-09-02T04:00:19;3.22;;;2.00;;
9304;SDS011;4690;52.422;13.486;2022-09-02T04:02:54;4.13;;;2.00;;
9304;SDS011;4690;52.422;13.486;2022-09-02T04:05:21;2.30;;;2.10;;
9304;SDS011;4690;52.422;13.486;2022-09-02T04:07:47;2.00;;;1.87;;
9304;SDS011;4690;52.422;13.486;2022-09-02T04:10:16;2.43;;;2.23;;
9304;SDS011;4690;52.422;13.486;2022-09-02T04:12:43;2.60;;;1.93;;
9304;SDS011;4690;52.422;13.486;2022-09-02T04:15:10;2.37;;;2.00;;
9304;SDS011;4690;52.422;13.486;2022-09-02T04:17:37;2.33;;;2.00;;
9304;SDS011;4690;52.422;13.486;2022-09-02T04:20:08;2.73;;;2.20;;
9304;SDS011;4690;52.422;13.486;2022-09-02T04:22:37;4.70;;;2.13;;
9304;SDS011;4690;52.422;13.486;2022-09-02T04:25:04;3.90;;;2.20;;
9304;SDS011;4690;52.422;13.486;2022-09-02T04:27:31;3.00;;;2.43;;
9304;SDS011;4690;52.422;13.486;2022-09-02T04:29:57;4.43;;;2.10;;
9304;SDS011;4690;52.422;13.486;2022-09-02T04:32:23;2.73;;;2.27;;
9304;SDS011;4690;52.422;13.486;2022-09-02T04:34:50;3.07;;;2.10;;
9304;SDS011;4690;52.422;13.486;2022-09-02T04:37:18;4.70;;;2.30;;
9304;SDS011;4690;52.422;13.486;2022-09-02T04:39:44;3.23;;;2.53;;
9304;SDS011;4690;52.422;13.486;2022-09-02T04:42:10;2.40;;;2.20;;
9304;SDS011;4690;52.422;13.486;2022-09-02T04:44:35;2.57;;;2.23;;
9304;SDS011;4690;52.422;13.486;2022-09-02T04:47:01;3.83;;;2.20;;
9304;SDS011;4690;52.422;13.486;2022-09-02T04:49:27;2.93;;;2.33;;
9304;SDS011;4690;52.422;13.486;2022-09-02T04:51:56;2.37;;;2.17;;
9304;SDS011;4690;52.422;13.486;2022-09-02T04:54:23;2.57;;;2.30;;
9304;SDS011;4690;52.422;13.486;2022-09-02T04:56:49;2.93;;;2.30;;
9304;SDS011;4690;52.422;13.486;2022-09-02T04:59:14;3.33;;;2.50;;
9304;SDS011;4690;52.422;13.486;2022-09-02T05:01:40;3.20;;;2.20;;
9304;SDS011;4690;52.422;13.486;2022-09-02T05:04:06;2.47;;;2.23;;
9304;SDS011;4690;52.422;13.486;2022-09-02T05:06:33;2.97;;;2.37;;
9304;SDS011;4690;52.422;13.486;2022-09-02T05:09:01;3.30;;;2.60;;
9304;SDS011;4690;52.422;13.486;2022-09-02T05:11:28;2.63;;;2.43;;
9304;SDS011;4690;52.422;13.486;2022-09-02T05:13:57;2.50;;;2.30;;
9304;SDS011;4690;52.422;13.486;2022-09-02T05:16:27;3.03;;;2.60;;
9304;SDS011;4690;52.422;13.486;2022-09-02T05:18:57;3.27;;;2.40;;
9304;SDS011;4690;52.422;13.486;2022-09-02T05:21:24;3.27;;;2.40;;
9304;SDS011;4690;52.422;13.486;2022-09-02T05:23:50;5.10;;;2.53;;
9304;SDS011;4690;52.422;13.486;2022-09-02T05:26:18;6.63;;;2.27;;
9304;SDS011;4690;52.422;13.486;2022-09-02T05:28:44;6.53;;;2.50;;
9304;SDS011;4690;52.422;13.486;2022-09-02T05:31:10;2.53;;;2.10;;
9304;SDS011;4690;52.422;13.486;2022-09-02T05:33:41;2.87;;;2.30;;
9304;SDS011;4690;52.422;13.486;2022-09-02T05:36:10;2.20;;;2.10;;
9304;SDS011;4690;52.422;13.486;2022-09-02T05:38:40;3.73;;;2.30;;
9304;SDS011;4690;52.422;13.486;2022-09-02T05:41:09;4.43;;;2.80;;
9304;SDS011;4690;52.422;13.486;2022-09-02T05:43:43;3.23;;;2.33;;
9304;SDS011;4690;52.422;13.486;2022-09-02T05:46:11;2.70;;;2.30;;
9304;SDS011;4690;52.422;13.486;2022-09-02T05:48:45;2.83;;;2.23;;
9304;SDS011;4690;52.422;13.486;2022-09-02T05:51:30;4.03;;;2.37;;
9304;SDS011;4690;52.422;13.486;2022-09-02T05:54:08;2.40;;;2.20;;
9304;SDS011;4690;52.422;13.486;2022-09-02T05:56:41;3.83;;;2.40;;
9304;SDS011;4690;52.422;13.486;2022-09-02T05:59:09;5.03;;;2.80;;
9304;SDS011;4690;52.422;13.486;2022-09-02T06:01:35;4.17;;;2.30;;
9304;SDS011;4690;52.422;13.486;2022-09-02T06:04:02;4.10;;;2.50;;
9304;SDS011;4690;52.422;13.486;2022-09-02T06:06:30;4.27;;;2.50;;
9304;SDS011;4690;52.422;13.486;2022-09-02T06:08:57;4.00;;;2.60;;
9304;SDS011;4690;52.422;13.486;2022-09-02T06:11:25;4.33;;;2.67;;
9304;SDS011;4690;52.422;13.486;2022-09-02T06:13:52;2.87;;;2.50;;
9304;SDS011;4690;52.422;13.486;2022-09-02T06:16:20;5.50;;;2.60;;
9304;SDS011;4690;52.422;13.486;2022-09-02T06:18:47;5.07;;;3.10;;
9304;SDS011;4690;52.422;13.486;2022-09-02T06:21:14;5.35;;;2.90;;
9304;SDS011;4690;52.422;13.486;2022-09-02T06:23:40;4.65;;;2.47;;
9304;SDS011;4690;52.422;13.486;2022-09-02T06:26:08;5.45;;;2.58;;
9304;SDS011;4690;52.422;13.486;2022-09-02T06:28:36;3.33;;;2.80;;
9304;SDS011;4690;52.422;13.486;2022-09-02T06:31:09;4.07;;;2.45;;
9304;SDS011;4690;52.422;13.486;2022-09-02T06:33:40;3.30;;;2.42;;
9304;SDS011;4690;52.422;13.486;2022-09-02T06:36:12;4.95;;;2.78;;
9304;SDS011;4690;52.422;13.486;2022-09-02T06:38:43;3.53;;;2.60;;
9304;SDS011;4690;52.422;13.486;2022-09-02T06:41:13;6.47;;;3.00;;
9304;SDS011;4690;52.422;13.486;2022-09-02T06:43:43;5.57;;;2.50;;
9304;SDS011;4690;52.422;13.486;2022-09-02T06:46:16;3.47;;;2.70;;
9304;SDS011;4690;52.422;13.486;2022-09-02T06:48:45;3.45;;;2.20;;
9304;SDS011;4690;52.422;13.486;2022-09-02T06:51:17;3.53;;;2.63;;
9304;SDS011;4690;52.422;13.486;2022-09-02T06:53:49;6.00;;;2.70;;
9304;SDS011;4690;52.422;13.486;2022-09-02T06:56:15;4.03;;;2.55;;
9304;SDS011;4690;52.422;13.486;2022-09-02T06:58:42;7.63;;;2.83;;
9304;SDS011;4690;52.422;13.486;2022-09-02T07:01:08;3.30;;;3.00;;
9304;SDS011;4690;52.422;13.486;2022-09-02T07:03:37;6.15;;;2.80;;
9304;SDS011;4690;52.422;13.486;2022-09-02T07:06:21;4.43;;;2.45;;
9304;SDS011;4690;52.422;13.486;2022-09-02T07:08:47;5.38;;;2.53;;
9304;SDS011;4690;52.422;13.486;2022-09-02T07:11:15;3.95;;;2.35;;
9304;SDS011;4690;52.422;13.486;2022-09-02T07:13:45;4.78;;;2.45;;
9304;SDS011;4690;52.422;13.486;2022-09-02T07:16:11;3.30;;;2.20;;
9304;SDS011;4690;52.422;13.486;2022-09-02T07:18:38;4.28;;;2.00;;
9304;SDS011;4690;52.422;13.486;2022-09-02T07:21:04;3.90;;;2.60;;
9304;SDS011;4690;52.422;13.486;2022-09-02T07:23:33;3.63;;;2.13;;
9304;SDS011;4690;52.422;13.486;2022-09-02T07:25:59;3.15;;;2.40;;
9304;SDS011;4690;52.422;13.486;2022-09-02T07:28:25;3.42;;;2.40;;
9304;SDS011;4690;52.422;13.486;2022-09-02T07:30:51;4.05;;;2.30;;
9304;SDS011;4690;52.422;13.486;2022-09-02T07:33:19;3.25;;;2.40;;
9304;SDS011;4690;52.422;13.486;2022-09-02T07:35:46;3.63;;;2.22;;
9304;SDS011;4690;52.422;13.486;2022-09-02T07:38:15;5.13;;;2.30;;
9304;SDS011;4690;52.422;13.486;2022-09-02T07:40:41;4.13;;;2.20;;
9304;SDS011;4690;52.422;13.486;2022-09-02T07:43:09;4.55;;;2.38;;
9304;SDS011;4690;52.422;13.486;2022-09-02T07:45:35;2.10;;;1.90;;
9304;SDS011;4690;52.422;13.486;2022-09-02T07:48:03;3.22;;;2.42;;
9304;SDS011;4690;52.422;13.486;2022-09-02T07:50:33;4.40;;;2.72;;
9304;SDS011;4690;52.422;13.486;2022-09-02T07:53:01;3.60;;;2.13;;
9304;SDS011;4690;52.422;13.486;2022-09-02T07:55:30;3.53;;;2.20;;
9304;SDS011;4690;52.422;13.486;2022-09-02T07:57:59;3.95;;;2.08;;
9304;SDS011;4690;52.422;13.486;2022-09-02T08:00:26;3.55;;;2.15;;
9304;SDS011;4690;52.422;13.486;2022-09-02T08:02:52;2.42;;;2.22;;
9304;SDS011;4690;52.422;13.486;2022-09-02T08:05:18;2.72;;;2.05;;
9304;SDS011;4690;52.422;13.486;2022-09-02T08:07:45;3.83;;;2.30;;
9304;SDS011;4690;52.422;13.486;2022-09-02T08:10:11;4.60;;;2.42;;
9304;SDS011;4690;52.422;13.486;2022-09-02T08:12:39;3.72;;;2.10;;
9304;SDS011;4690;52.422;13.486;2022-09-02T08:15:07;5.55;;;2.00;;
9304;SDS011;4690;52.422;13.486;2022-09-02T08:17:35;6.18;;;3.17;;
9304;SDS011;4690;52.422;13.486;2022-09-02T08:20:05;3.03;;;2.13;;
9304;SDS011;4690;52.422;13.486;2022-09-02T08:22:36;7.47;;;2.33;;
9304;SDS011;4690;52.422;13.486;2022-09-02T08:25:03;2.33;;;2.10;;
9304;SDS011;4690;52.422;13.486;2022-09-02T08:27:30;3.38;;;2.13;;
9304;SDS011;4690;52.422;13.486;2022-09-02T08:29:56;6.53;;;2.10;;
9304;SDS011;4690;52.422;13.486;2022-09-02T08:32:23;2.22;;;2.00;;
9304;SDS011;4690;52.422;13.486;2022-09-02T08:34:49;2.15;;;1.75;;
9304;SDS011;4690;52.422;13.486;2022-09-02T08:37:15;2.33;;;1.80;;
9304;SDS011;4690;52.422;13.486;2022-09-02T08:39:42;2.63;;;1.90;;
9304;SDS011;4690;52.422;13.486;2022-09-02T08:44:48;2.53;;;1.80;;
9304;SDS011;4690;52.422;13.486;2022-09-02T08:47:20;2.47;;;1.85;;
9304;SDS011;4690;52.422;13.486;2022-09-02T08:49:57;2.92;;;1.60;;
9304;SDS011;4690;52.422;13.486;2022-09-02T08:52:32;3.40;;;1.63;;
9304;SDS011;4690;52.422;13.486;2022-09-02T08:55:14;3.92;;;1.55;;
9304;SDS011;4690;52.422;13.486;2022-09-02T08:57:52;1.70;;;1.60;;
9304;SDS011;4690;52.422;13.486;2022-09-02T09:00:20;2.05;;;1.60;;
9304;SDS011;4690;52.422;13.486;2022-09-02T09:08:32;5.22;;;1.80;;
9304;SDS011;4690;52.422;13.486;2022-09-02T09:11:29;3.80;;;1.85;;
9304;SDS011;4690;52.422;13.486;2022-09-02T09:19:49;2.33;;;1.70;;
9304;SDS011;4690;52.422;13.486;2022-09-02T09:22:28;2.85;;;1.80;;
9304;SDS011;4690;52.422;13.486;2022-09-02T09:25:01;3.75;;;1.73;;
9304;SDS011;4690;52.422;13.486;2022-09-02T09:27:35;1.98;;;1.58;;
9304;SDS011;4690;52.422;13.486;2022-09-02T09:30:00;2.13;;;1.58;;
9304;SDS011;4690;52.422;13.486;2022-09-02T09:32:37;1.80;;;1.50;;
9304;SDS011;4690;52.422;13.486;2022-09-02T09:35:10;1.70;;;1.60;;
9304;SDS011;4690;52.422;13.486;2022-09-02T09:37:40;2.78;;;1.55;;
9304;SDS011;4690;52.422;13.486;2022-09-02T09:42:41;3.08;;;1.60;;
9304;SDS011;4690;52.422;13.486;2022-09-02T09:45:16;1.80;;;1.70;;
9304;SDS011;4690;52.422;13.486;2022-09-02T09:47:54;4.18;;;1.52;;
9304;SDS011;4690;52.422;13.486;2022-09-02T09:53:24;2.58;;;1.63;;
9304;SDS011;4690;52.422;13.486;2022-09-02T09:58:41;1.70;;;1.60;;
9304;SDS011;4690;52.422;13.486;2022-09-02T10:01:11;1.73;;;1.60;;
9304;SDS011;4690;52.422;13.486;2022-09-02T10:03:51;3.10;;;1.60;;
9304;SDS011;4690;52.422;13.486;2022-09-02T10:06:23;1.50;;;1.40;;
9304;SDS011;4690;52.422;13.486;2022-09-02T10:11:38;1.60;;;1.50;;
9304;SDS011;4690;52.422;13.486;2022-09-02T10:14:21;2.33;;;1.50;;
9304;SDS011;4690;52.422;13.486;2022-09-02T10:19:53;1.90;;;1.70;;
9304;SDS011;4690;52.422;13.486;2022-09-02T10:31:08;1.50;;;1.40;;
9304;SDS011;4690;52.422;13.486;2022-09-02T10:36:18;2.30;;;1.60;;
9304;SDS011;4690;52.422;13.486;2022-09-02T10:39:05;2.70;;;1.58;;
9304;SDS011;4690;52.422;13.486;2022-09-02T10:41:52;1.63;;;1.52;;
9304;SDS011;4690;52.422;13.486;2022-09-02T10:47:39;1.60;;;1.50;;
9304;SDS011;4690;52.422;13.486;2022-09-02T10:53:05;2.95;;;1.75;;
9304;SDS011;4690;52.422;13.486;2022-09-02T10:56:00;3.50;;;1.90;;
9304;SDS011;4690;52.422;13.486;2022-09-02T11:01:09;2.85;;;1.80;;
9304;SDS011;4690;52.422;13.486;2022-09-02T11:03:58;2.97;;;1.70;;
9304;SDS011;4690;52.422;13.486;2022-09-02T11:06:38;2.35;;;1.80;;
9304;SDS011;4690;52.422;13.486;2022-09-02T11:09:11;2.75;;;2.00;;
9304;SDS011;4690;52.422;13.486;2022-09-02T11:20:36;2.50;;;1.80;;
9304;SDS011;4690;52.422;13.486;2022-09-02T11:26:22;2.90;;;1.60;;
9304;SDS011;4690;52.422;13.486;2022-09-02T11:29:19;1.60;;;1.40;;
9304;SDS011;4690;52.422;13.486;2022-09-02T11:32:03;1.90;;;1.80;;
9304;SDS011;4690;52.422;13.486;2022-09-02T11:34:50;2.25;;;2.05;;
9304;SDS011;4690;52.422;13.486;2022-09-02T11:37:31;2.95;;;1.80;;
9304;SDS011;4690;52.422;13.486;2022-09-02T11:43:45;5.97;;;1.90;;
9304;SDS011;4690;52.422;13.486;2022-09-02T11:55:05;2.72;;;1.70;;
9304;SDS011;4690;52.422;13.486;2022-09-02T11:57:40;1.52;;;1.42;;
9304;SDS011;4690;52.422;13.486;2022-09-02T12:00:10;1.58;;;1.40;;
9304;SDS011;4690;52.422;13.486;2022-09-02T12:08:04;1.60;;;1.50;;
9304;SDS011;4690;52.422;13.486;2022-09-02T12:11:03;2.45;;;1.80;;
9304;SDS011;4690;52.422;13.486;2022-09-02T12:13:40;5.13;;;1.75;;
9304;SDS011;4690;52.422;13.486;2022-09-02T12:21:22;1.70;;;1.60;;
9304;SDS011;4690;52.422;13.486;2022-09-02T12:26:29;1.90;;;1.80;;
9304;SDS011;4690;52.422;13.486;2022-09-02T12:31:46;1.70;;;1.40;;
9304;SDS011;4690;52.422;13.486;2022-09-02T12:36:52;2.25;;;2.05;;
9304;SDS011;4690;52.422;13.486;2022-09-02T12:42:24;1.95;;;1.75;;
9304;SDS011;4690;52.422;13.486;2022-09-02T12:50:57;1.60;;;1.50;;
9304;SDS011;4690;52.422;13.486;2022-09-02T12:56:22;1.73;;;1.63;;
9304;SDS011;4690;52.422;13.486;2022-09-02T13:01:24;1.85;;;1.75;;
9304;SDS011;4690;52.422;13.486;2022-09-02T13:12:56;3.03;;;1.85;;
9304;SDS011;4690;52.422;13.486;2022-09-02T13:15:35;1.70;;;1.60;;
9304;SDS011;4690;52.422;13.486;2022-09-02T13:18:44;2.20;;;2.00;;
9304;SDS011;4690;52.422;13.486;2022-09-02T13:22:09;2.17;;;1.90;;
9304;SDS011;4690;52.422;13.486;2022-09-02T13:33:55;4.53;;;3.22;;
9304;SDS011;4690;52.422;13.486;2022-09-02T13:36:33;3.38;;;1.60;;
9304;SDS011;4690;52.422;13.486;2022-09-02T13:41:55;2.33;;;1.85;;
9304;SDS011;4690;52.422;13.486;2022-09-02T13:44:25;2.38;;;1.60;;
9304;SDS011;4690;52.422;13.486;2022-09-02T13:49:51;1.70;;;1.60;;
9304;SDS011;4690;52.422;13.486;2022-09-02T13:52:18;3.42;;;2.00;;
9304;SDS011;4690;52.422;13.486;2022-09-02T13:54:56;3.75;;;1.70;;
9304;SDS011;4690;52.422;13.486;2022-09-02T13:57:24;3.35;;;1.77;;
9304;SDS011;4690;52.422;13.486;2022-09-02T13:59:56;1.58;;;1.48;;
9304;SDS011;4690;52.422;13.486;2022-09-02T14:02:32;1.80;;;1.70;;
9304;SDS011;4690;52.422;13.486;2022-09-02T14:05:14;1.77;;;1.67;;
9304;SDS011;4690;52.422;13.486;2022-09-02T14:07:46;1.70;;;1.60;;
9304;SDS011;4690;52.422;13.486;2022-09-02T14:10:18;1.70;;;1.60;;
9304;SDS011;4690;52.422;13.486;2022-09-02T14:12:48;1.80;;;1.70;;
9304;SDS011;4690;52.422;13.486;2022-09-02T14:15:16;4.07;;;1.65;;
9304;SDS011;4690;52.422;13.486;2022-09-02T14:20:59;1.75;;;1.65;;
9304;SDS011;4690;52.422;13.486;2022-09-02T14:23:46;1.70;;;1.60;;
9304;SDS011;4690;52.422;13.486;2022-09-02T14:26:20;2.13;;;1.80;;
9304;SDS011;4690;52.422;13.486;2022-09-02T14:29:01;1.60;;;1.50;;
9304;SDS011;4690;52.422;13.486;2022-09-02T14:31:30;2.30;;;1.58;;
9304;SDS011;4690;52.422;13.486;2022-09-02T14:34:00;2.10;;;1.40;;
9304;SDS011;4690;52.422;13.486;2022-09-02T14:36:35;5.13;;;1.70;;
9304;SDS011;4690;52.422;13.486;2022-09-02T14:39:15;1.70;;;1.60;;
9304;SDS011;4690;52.422;13.486;2022-09-02T14:41:47;2.42;;;1.40;;
9304;SDS011;4690;52.422;13.486;2022-09-02T14:44:29;1.40;;;1.30;;
9304;SDS011;4690;52.422;13.486;2022-09-02T14:47:00;2.10;;;1.38;;
9304;SDS011;4690;52.422;13.486;2022-09-02T14:49:35;1.63;;;1.52;;
9304;SDS011;4690;52.422;13.486;2022-09-02T14:52:15;1.98;;;1.55;;
9304;SDS011;4690;52.422;13.486;2022-09-02T14:54:48;1.50;;;1.40;;
9304;SDS011;4690;52.422;13.486;2022-09-02T14:57:20;1.52;;;1.38;;
9304;SDS011;4690;52.422;13.486;2022-09-02T14:59:47;1.85;;;1.40;;
9304;SDS011;4690;52.422;13.486;2022-09-02T15:04:52;1.50;;;1.40;;
9304;SDS011;4690;52.422;13.486;2022-09-02T15:07:19;1.70;;;1.60;;
9304;SDS011;4690;52.422;13.486;2022-09-02T15:09:45;2.53;;;1.35;;
9304;SDS011;4690;52.422;13.486;2022-09-02T15:12:15;3.97;;;1.50;;
9304;SDS011;4690;52.422;13.486;2022-09-02T15:14:43;2.25;;;1.40;;
9304;SDS011;4690;52.422;13.486;2022-09-02T15:17:11;2.28;;;1.48;;
9304;SDS011;4690;52.422;13.486;2022-09-02T15:19:39;1.80;;;1.70;;
9304;SDS011;4690;52.422;13.486;2022-09-02T15:22:05;2.40;;;1.33;;
9304;SDS011;4690;52.422;13.486;2022-09-02T15:24:31;1.67;;;1.58;;
9304;SDS011;4690;52.422;13.486;2022-09-02T15:26:57;1.60;;;1.50;;
9304;SDS011;4690;52.422;13.486;2022-09-02T15:29:23;2.55;;;1.70;;
9304;SDS011;4690;52.422;13.486;2022-09-02T15:31:52;1.63;;;1.52;;
9304;SDS011;4690;52.422;13.486;2022-09-02T15:34:20;2.67;;;1.65;;
9304;SDS011;4690;52.422;13.486;2022-09-02T15:36:46;1.70;;;1.60;;
9304;SDS011;4690;52.422;13.486;2022-09-02T15:39:12;1.70;;;1.60;;
9304;SDS011;4690;52.422;13.486;2022-09-02T15:41:39;1.90;;;1.70;;
9304;SDS011;4690;52.422;13.486;2022-09-02T15:44:08;2.90;;;2.25;;
9304;SDS011;4690;52.422;13.486;2022-09-02T15:46:35;2.63;;;2.05;;
9304;SDS011;4690;52.422;13.486;2022-09-02T15:49:03;2.58;;;2.10;;
9304;SDS011;4690;52.422;13.486;2022-09-02T15:51:32;2.20;;;2.00;;
9304;SDS011;4690;52.422;13.486;2022-09-02T15:54:00;1.95;;;1.63;;
9304;SDS011;4690;52.422;13.486;2022-09-02T15:56:30;2.88;;;1.60;;
9304;SDS011;4690;52.422;13.486;2022-09-02T15:58:59;1.85;;;1.70;;
9304;SDS011;4690;52.422;13.486;2022-09-02T16:01:40;3.20;;;1.58;;
9304;SDS011;4690;52.422;13.486;2022-09-02T16:04:09;1.83;;;1.60;;
9304;SDS011;4690;52.422;13.486;2022-09-02T16:06:37;1.70;;;1.60;;
9304;SDS011;4690;52.422;13.486;2022-09-02T16:09:06;1.60;;;1.50;;
9304;SDS011;4690;52.422;13.486;2022-09-02T16:11:38;1.60;;;1.50;;
9304;SDS011;4690;52.422;13.486;2022-09-02T16:14:10;3.53;;;1.80;;
9304;SDS011;4690;52.422;13.486;2022-09-02T16:16:36;1.65;;;1.55;;
9304;SDS011;4690;52.422;13.486;2022-09-02T16:19:03;1.77;;;1.55;;
9304;SDS011;4690;52.422;13.486;2022-09-02T16:21:31;1.52;;;1.42;;
9304;SDS011;4690;52.422;13.486;2022-09-02T16:23:57;2.80;;;1.40;;
9304;SDS011;4690;52.422;13.486;2022-09-02T16:26:24;2.53;;;1.50;;
9304;SDS011;4690;52.422;13.486;2022-09-02T16:28:55;2.53;;;1.40;;
9304;SDS011;4690;52.422;13.486;2022-09-02T16:31:30;3.25;;;1.40;;
9304;SDS011;4690;52.422;13.486;2022-09-02T16:34:08;1.50;;;1.40;;
9304;SDS011;4690;52.422;13.486;2022-09-02T16:36:38;1.70;;;1.60;;
9304;SDS011;4690;52.422;13.486;2022-09-02T16:39:10;1.55;;;1.45;;
9304;SDS011;4690;52.422;13.486;2022-09-02T16:41:38;2.15;;;1.58;;
9304;SDS011;4690;52.422;13.486;2022-09-02T16:44:11;2.05;;;1.50;;
9304;SDS011;4690;52.422;13.486;2022-09-02T16:46:41;2.85;;;1.50;;
9304;SDS011;4690;52.422;13.486;2022-09-02T16:49:08;2.90;;;1.83;;
9304;SDS011;4690;52.422;13.486;2022-09-02T16:51:37;1.50;;;1.40;;
9304;SDS011;4690;52.422;13.486;2022-09-02T16:54:05;2.00;;;1.55;;
9304;SDS011;4690;52.422;13.486;2022-09-02T16:56:33;1.60;;;1.50;;
9304;SDS011;4690;52.422;13.486;2022-09-02T16:59:01;1.60;;;1.50;;
9304;SDS011;4690;52.422;13.486;2022-09-02T17:01:31;2.08;;;1.55;;
9304;SDS011;4690;52.422;13.486;2022-09-02T17:03:58;2.55;;;2.08;;
9304;SDS011;4690;52.422;13.486;2022-09-02T17:06:25;2.83;;;2.20;;
9304;SDS011;4690;52.422;13.486;2022-09-02T17:08:52;4.90;;;1.85;;
9304;SDS011;4690;52.422;13.486;2022-09-02T17:16:27;2.63;;;2.22;;
9304;SDS011;4690;52.422;13.486;2022-09-02T17:18:56;4.40;;;2.33;;
9304;SDS011;4690;52.422;13.486;2022-09-02T17:23:51;3.05;;;2.40;;
9304;SDS011;4690;52.422;13.486;2022-09-02T17:26:19;1.50;;;1.40;;
9304;SDS011;4690;52.422;13.486;2022-09-02T17:28:47;1.70;;;1.60;;
9304;SDS011;4690;52.422;13.486;2022-09-02T17:31:32;1.70;;;1.40;;
9304;SDS011;4690;52.422;13.486;2022-09-02T17:33:59;1.50;;;1.40;;
9304;SDS011;4690;52.422;13.486;2022-09-02T17:36:30;2.85;;;1.40;;
9304;SDS011;4690;52.422;13.486;2022-09-02T17:39:02;1.88;;;1.50;;
9304;SDS011;4690;52.422;13.486;2022-09-02T17:41:33;3.47;;;1.65;;
9304;SDS011;4690;52.422;13.486;2022-09-02T17:44:18;2.75;;;1.40;;
9304;SDS011;4690;52.422;13.486;2022-09-02T17:46:59;3.72;;;1.73;;